sensor_id;sensor_type;location;lat;lon;timestamp;temperature;humidity
71173;DHT22;58875;51.996;4.504;2023-07-09T00:02:24;24.30;72.37
71173;DHT22;58875;51.996;4.504;2023-07-09T00:04:50;24.28;72.41
71173;DHT22;58875;51.996;4.504;2023-07-09T00:09:47;24.23;72.65
71173;DHT22;58875;51.996;4.504;2023-07-09T00:12:15;24.24;72.60
71173;DHT22;58875;51.996;4.504;2023-07-09T00:14:41;24.18;72.64
71173;DHT22;58875;51.996;4.504;2023-07-09T00:17:33;24.18;72.62
71173;DHT22;58875;51.996;4.504;2023-07-09T00:19:59;24.18;72.81
71173;DHT22;58875;51.996;4.504;2023-07-09T00:22:25;24.13;73.00
71173;DHT22;58875;51.996;4.504;2023-07-09T00:24:52;24.10;73.13
71173;DHT22;58875;51.996;4.504;2023-07-09T00:27:25;24.06;73.01
71173;DHT22;58875;51.996;4.504;2023-07-09T00:29:52;24.02;73.14
71173;DHT22;58875;51.996;4.504;2023-07-09T00:32:19;23.97;73.17
71173;DHT22;58875;51.996;4.504;2023-07-09T00:34:51;23.93;73.14
71173;DHT22;58875;51.996;4.504;2023-07-09T00:37:18;23.89;73.16
71173;DHT22;58875;51.996;4.504;2023-07-09T00:39:47;23.89;73.33
71173;DHT22;58875;51.996;4.504;2023-07-09T00:42:22;23.85;73.44
71173;DHT22;58875;51.996;4.504;2023-07-09T00:44:53;23.79;73.47
71173;DHT22;58875;51.996;4.504;2023-07-09T00:50:36;23.75;73.79
71173;DHT22;58875;51.996;4.504;2023-07-09T00:53:15;23.73;74.11
71173;DHT22;58875;51.996;4.504;2023-07-09T00:55:52;23.69;74.18
71173;DHT22;58875;51.996;4.504;2023-07-09T00:58:24;23.67;74.35
71173;DHT22;58875;51.996;4.504;2023-07-09T01:00:56;23.65;74.26
71173;DHT22;58875;51.996;4.504;2023-07-09T01:03:29;23.61;74.22
71173;DHT22;58875;51.996;4.504;2023-07-09T01:05:56;23.62;74.15
71173;DHT22;58875;51.996;4.504;2023-07-09T01:08:24;23.61;74.24
71173;DHT22;58875;51.996;4.504;2023-07-09T01:10:50;23.56;74.47
71173;DHT22;58875;51.996;4.504;2023-07-09T01:13:17;23.59;74.76
71173;DHT22;58875;51.996;4.504;2023-07-09T01:15:46;23.58;74.90
71173;DHT22;58875;51.996;4.504;2023-07-09T01:18:12;23.56;74.88
71173;DHT22;58875;51.996;4.504;2023-07-09T01:20:41;23.58;74.96
71173;DHT22;58875;51.996;4.504;2023-07-09T01:23:07;23.59;74.91
71173;DHT22;58875;51.996;4.504;2023-07-09T01:25:33;23.58;75.15
71173;DHT22;58875;51.996;4.504;2023-07-09T01:27:59;23.54;75.16
71173;DHT22;58875;51.996;4.504;2023-07-09T01:30:41;23.55;75.10
71173;DHT22;58875;51.996;4.504;2023-07-09T01:33:07;23.54;75.06
71173;DHT22;58875;51.996;4.504;2023-07-09T01:35:38;23.52;75.10
71173;DHT22;58875;51.996;4.504;2023-07-09T01:38:07;23.51;75.17
71173;DHT22;58875;51.996;4.504;2023-07-09T01:40:33;23.51;75.31
71173;DHT22;58875;51.996;4.504;2023-07-09T01:43:01;23.48;75.19
71173;DHT22;58875;51.996;4.504;2023-07-09T01:45:28;23.48;75.09
71173;DHT22;58875;51.996;4.504;2023-07-09T01:47:53;23.48;75.07
71173;DHT22;58875;51.996;4.504;2023-07-09T01:50:20;23.51;74.91
71173;DHT22;58875;51.996;4.504;2023-07-09T01:52:46;23.45;74.66
71173;DHT22;58875;51.996;4.504;2023-07-09T01:55:15;23.45;74.65
71173;DHT22;58875;51.996;4.504;2023-07-09T01:57:43;23.46;74.72
71173;DHT22;58875;51.996;4.504;2023-07-09T02:00:12;23.44;74.68
71173;DHT22;58875;51.996;4.504;2023-07-09T02:02:40;23.45;74.69
71173;DHT22;58875;51.996;4.504;2023-07-09T02:05:11;23.39;74.67
71173;DHT22;58875;51.996;4.504;2023-07-09T02:07:38;23.39;74.83
71173;DHT22;58875;51.996;4.504;2023-07-09T02:10:04;23.38;75.13
71173;DHT22;58875;51.996;4.504;2023-07-09T02:12:30;23.37;75.36
71173;DHT22;58875;51.996;4.504;2023-07-09T02:14:55;23.35;75.36
71173;DHT22;58875;51.996;4.504;2023-07-09T02:17:21;23.32;75.48
71173;DHT22;58875;51.996;4.504;2023-07-09T02:19:46;23.31;75.58
71173;DHT22;58875;51.996;4.504;2023-07-09T02:22:12;23.29;75.51
71173;DHT22;58875;51.996;4.504;2023-07-09T02:24:38;23.29;75.49
71173;DHT22;58875;51.996;4.504;2023-07-09T02:27:06;23.24;75.62
71173;DHT22;58875;51.996;4.504;2023-07-09T02:29:33;23.24;75.41
71173;DHT22;58875;51.996;4.504;2023-07-09T02:32:00;23.21;75.37
71173;DHT22;58875;51.996;4.504;2023-07-09T02:34:27;23.17;75.40
71173;DHT22;58875;51.996;4.504;2023-07-09T02:36:54;23.14;75.48
71173;DHT22;58875;51.996;4.504;2023-07-09T02:39:20;23.12;75.46
71173;DHT22;58875;51.996;4.504;2023-07-09T02:41:46;23.14;75.56
71173;DHT22;58875;51.996;4.504;2023-07-09T02:44:12;23.14;75.62
71173;DHT22;58875;51.996;4.504;2023-07-09T02:46:38;23.08;75.91
71173;DHT22;58875;51.996;4.504;2023-07-09T02:49:05;23.12;75.92
71173;DHT22;58875;51.996;4.504;2023-07-09T02:51:32;23.05;75.93
71173;DHT22;58875;51.996;4.504;2023-07-09T02:54:00;23.05;75.90
71173;DHT22;58875;51.996;4.504;2023-07-09T02:56:26;23.03;76.01
71173;DHT22;58875;51.996;4.504;2023-07-09T02:58:52;23.05;76.13
71173;DHT22;58875;51.996;4.504;2023-07-09T03:01:19;23.00;76.25
71173;DHT22;58875;51.996;4.504;2023-07-09T03:03:57;23.00;76.44
71173;DHT22;58875;51.996;4.504;2023-07-09T03:06:26;22.90;76.61
71173;DHT22;58875;51.996;4.504;2023-07-09T03:08:52;22.90;76.89
71173;DHT22;58875;51.996;4.504;2023-07-09T03:11:19;22.91;76.98
71173;DHT22;58875;51.996;4.504;2023-07-09T03:13:46;22.91;76.90
71173;DHT22;58875;51.996;4.504;2023-07-09T03:16:12;22.87;77.03
71173;DHT22;58875;51.996;4.504;2023-07-09T03:18:38;22.88;77.20
71173;DHT22;58875;51.996;4.504;2023-07-09T03:21:03;22.87;77.19
71173;DHT22;58875;51.996;4.504;2023-07-09T03:23:29;22.83;77.07
71173;DHT22;58875;51.996;4.504;2023-07-09T03:25:55;22.80;77.21
71173;DHT22;58875;51.996;4.504;2023-07-09T03:28:21;22.77;77.29
71173;DHT22;58875;51.996;4.504;2023-07-09T03:30:48;22.77;77.18
71173;DHT22;58875;51.996;4.504;2023-07-09T03:33:16;22.76;76.95
71173;DHT22;58875;51.996;4.504;2023-07-09T03:35:42;22.68;77.03
71173;DHT22;58875;51.996;4.504;2023-07-09T03:38:09;22.71;77.39
71173;DHT22;58875;51.996;4.504;2023-07-09T03:40:36;22.76;77.67
71173;DHT22;58875;51.996;4.504;2023-07-09T03:43:03;22.77;77.70
71173;DHT22;58875;51.996;4.504;2023-07-09T03:45:30;22.81;77.33
71173;DHT22;58875;51.996;4.504;2023-07-09T03:47:55;22.78;77.12
71173;DHT22;58875;51.996;4.504;2023-07-09T03:50:22;22.80;76.92
71173;DHT22;58875;51.996;4.504;2023-07-09T03:52:47;22.77;76.86
71173;DHT22;58875;51.996;4.504;2023-07-09T03:55:13;22.77;76.75
71173;DHT22;58875;51.996;4.504;2023-07-09T03:57:40;22.80;76.75
71173;DHT22;58875;51.996;4.504;2023-07-09T04:00:07;22.77;76.80
71173;DHT22;58875;51.996;4.504;2023-07-09T04:02:39;22.77;76.70
71173;DHT22;58875;51.996;4.504;2023-07-09T04:05:06;22.78;76.54
71173;DHT22;58875;51.996;4.504;2023-07-09T04:07:34;22.74;76.56
71173;DHT22;58875;51.996;4.504;2023-07-09T04:10:00;22.74;76.40
71173;DHT22;58875;51.996;4.504;2023-07-09T04:12:25;22.76;76.43
71173;DHT22;58875;51.996;4.504;2023-07-09T04:14:51;22.76;76.39
71173;DHT22;58875;51.996;4.504;2023-07-09T04:17:16;22.83;76.41
71173;DHT22;58875;51.996;4.504;2023-07-09T04:19:42;22.81;76.40
71173;DHT22;58875;51.996;4.504;2023-07-09T04:22:10;22.84;76.29
71173;DHT22;58875;51.996;4.504;2023-07-09T04:24:36;22.84;76.21
71173;DHT22;58875;51.996;4.504;2023-07-09T04:27:02;22.86;76.35
71173;DHT22;58875;51.996;4.504;2023-07-09T04:29:32;22.84;76.37
71173;DHT22;58875;51.996;4.504;2023-07-09T04:32:05;22.87;76.64
71173;DHT22;58875;51.996;4.504;2023-07-09T04:34:31;22.91;76.81
71173;DHT22;58875;51.996;4.504;2023-07-09T04:36:56;22.93;76.78
71173;DHT22;58875;51.996;4.504;2023-07-09T04:39:22;22.95;76.69
71173;DHT22;58875;51.996;4.504;2023-07-09T04:41:48;23.01;76.93
71173;DHT22;58875;51.996;4.504;2023-07-09T04:44:13;23.05;76.68
71173;DHT22;58875;51.996;4.504;2023-07-09T04:46:39;23.11;76.61
71173;DHT22;58875;51.996;4.504;2023-07-09T04:49:05;23.17;76.46
71173;DHT22;58875;51.996;4.504;2023-07-09T04:51:30;23.19;76.39
71173;DHT22;58875;51.996;4.504;2023-07-09T04:53:57;23.25;76.51
71173;DHT22;58875;51.996;4.504;2023-07-09T04:56:23;23.31;76.54
71173;DHT22;58875;51.996;4.504;2023-07-09T04:58:48;23.35;76.35
71173;DHT22;58875;51.996;4.504;2023-07-09T05:01:14;23.41;76.57
71173;DHT22;58875;51.996;4.504;2023-07-09T05:03:39;23.48;76.63
71173;DHT22;58875;51.996;4.504;2023-07-09T05:06:05;23.56;76.44
71173;DHT22;58875;51.996;4.504;2023-07-09T05:08:31;23.59;76.29
71173;DHT22;58875;51.996;4.504;2023-07-09T05:10:57;23.69;76.21
71173;DHT22;58875;51.996;4.504;2023-07-09T05:13:26;23.70;76.07
71173;DHT22;58875;51.996;4.504;2023-07-09T05:15:52;23.79;75.70
71173;DHT22;58875;51.996;4.504;2023-07-09T05:18:18;23.85;75.27
71173;DHT22;58875;51.996;4.504;2023-07-09T05:20:46;23.83;75.30
71173;DHT22;58875;51.996;4.504;2023-07-09T05:23:12;23.93;75.32
71173;DHT22;58875;51.996;4.504;2023-07-09T05:25:38;24.03;75.10
71173;DHT22;58875;51.996;4.504;2023-07-09T05:28:05;24.03;74.35
71173;DHT22;58875;51.996;4.504;2023-07-09T05:30:31;23.99;74.09
71173;DHT22;58875;51.996;4.504;2023-07-09T05:32:57;24.05;74.30
71173;DHT22;58875;51.996;4.504;2023-07-09T05:35:24;24.13;73.89
71173;DHT22;58875;51.996;4.504;2023-07-09T05:37:51;24.16;73.48
71173;DHT22;58875;51.996;4.504;2023-07-09T05:40:17;24.17;73.37
71173;DHT22;58875;51.996;4.504;2023-07-09T05:42:43;24.24;73.43
71173;DHT22;58875;51.996;4.504;2023-07-09T05:45:08;24.26;72.55
71173;DHT22;58875;51.996;4.504;2023-07-09T05:47:36;24.23;72.90
71173;DHT22;58875;51.996;4.504;2023-07-09T05:50:03;24.31;72.54
71173;DHT22;58875;51.996;4.504;2023-07-09T05:52:29;24.31;71.62
71173;DHT22;58875;51.996;4.504;2023-07-09T05:54:55;24.36;70.85
71173;DHT22;58875;51.996;4.504;2023-07-09T05:57:21;24.37;71.13
71173;DHT22;58875;51.996;4.504;2023-07-09T05:59:47;24.43;71.26
71173;DHT22;58875;51.996;4.504;2023-07-09T06:02:14;24.51;70.35
71173;DHT22;58875;51.996;4.504;2023-07-09T06:04:40;24.55;70.50
71173;DHT22;58875;51.996;4.504;2023-07-09T06:07:06;24.68;70.49
71173;DHT22;58875;51.996;4.504;2023-07-09T06:09:32;24.65;69.56
71173;DHT22;58875;51.996;4.504;2023-07-09T06:11:58;24.67;69.85
71173;DHT22;58875;51.996;4.504;2023-07-09T06:14:25;24.68;69.50
71173;DHT22;58875;51.996;4.504;2023-07-09T06:16:51;24.68;69.27
71173;DHT22;58875;51.996;4.504;2023-07-09T06:19:16;24.69;69.00
71173;DHT22;58875;51.996;4.504;2023-07-09T06:21:42;24.74;68.47
71173;DHT22;58875;51.996;4.504;2023-07-09T06:24:10;24.81;67.56
71173;DHT22;58875;51.996;4.504;2023-07-09T06:26:36;24.85;67.41
71173;DHT22;58875;51.996;4.504;2023-07-09T06:29:02;24.95;67.71
71173;DHT22;58875;51.996;4.504;2023-07-09T06:31:28;25.09;67.59
71173;DHT22;58875;51.996;4.504;2023-07-09T06:33:53;25.08;63.91
71173;DHT22;58875;51.996;4.504;2023-07-09T06:36:19;24.98;64.07
71173;DHT22;58875;51.996;4.504;2023-07-09T06:38:45;25.01;63.09
71173;DHT22;58875;51.996;4.504;2023-07-09T06:41:13;25.06;62.82
71173;DHT22;58875;51.996;4.504;2023-07-09T06:43:39;25.15;61.13
71173;DHT22;58875;51.996;4.504;2023-07-09T06:46:06;25.11;60.13
71173;DHT22;58875;51.996;4.504;2023-07-09T06:48:33;25.12;60.04
71173;DHT22;58875;51.996;4.504;2023-07-09T06:50:59;25.11;60.36
71173;DHT22;58875;51.996;4.504;2023-07-09T06:53:26;25.14;59.64
71173;DHT22;58875;51.996;4.504;2023-07-09T06:55:53;25.14;60.65
71173;DHT22;58875;51.996;4.504;2023-07-09T06:58:22;25.19;60.48
71173;DHT22;58875;51.996;4.504;2023-07-09T07:00:49;25.29;60.27
71173;DHT22;58875;51.996;4.504;2023-07-09T07:03:15;25.43;59.35
71173;DHT22;58875;51.996;4.504;2023-07-09T07:05:45;25.46;59.42
71173;DHT22;58875;51.996;4.504;2023-07-09T07:08:14;25.64;59.35
71173;DHT22;58875;51.996;4.504;2023-07-09T07:10:40;25.78;59.53
71173;DHT22;58875;51.996;4.504;2023-07-09T07:13:06;25.70;59.08
71173;DHT22;58875;51.996;4.504;2023-07-09T07:15:32;25.69;59.73
71173;DHT22;58875;51.996;4.504;2023-07-09T07:17:57;25.67;58.96
71173;DHT22;58875;51.996;4.504;2023-07-09T07:20:23;25.63;59.64
71173;DHT22;58875;51.996;4.504;2023-07-09T07:22:49;25.63;60.03
71173;DHT22;58875;51.996;4.504;2023-07-09T07:25:15;25.62;60.90
71173;DHT22;58875;51.996;4.504;2023-07-09T07:27:41;25.66;60.33
71173;DHT22;58875;51.996;4.504;2023-07-09T07:30:08;25.78;58.83
71173;DHT22;58875;51.996;4.504;2023-07-09T07:32:47;25.81;58.50
71173;DHT22;58875;51.996;4.504;2023-07-09T07:35:14;25.91;57.54
71173;DHT22;58875;51.996;4.504;2023-07-09T07:37:40;25.90;57.70
71173;DHT22;58875;51.996;4.504;2023-07-09T07:40:07;26.02;58.73
71173;DHT22;58875;51.996;4.504;2023-07-09T07:42:33;26.15;57.65
71173;DHT22;58875;51.996;4.504;2023-07-09T07:44:59;26.13;58.09
71173;DHT22;58875;51.996;4.504;2023-07-09T07:47:25;26.29;58.31
71173;DHT22;58875;51.996;4.504;2023-07-09T07:49:53;26.24;57.21
71173;DHT22;58875;51.996;4.504;2023-07-09T07:52:18;26.39;58.59
71173;DHT22;58875;51.996;4.504;2023-07-09T07:54:44;26.45;58.16
71173;DHT22;58875;51.996;4.504;2023-07-09T07:57:10;26.39;58.72
71173;DHT22;58875;51.996;4.504;2023-07-09T07:59:36;26.39;58.52
71173;DHT22;58875;51.996;4.504;2023-07-09T08:02:03;26.39;59.26
71173;DHT22;58875;51.996;4.504;2023-07-09T08:04:29;26.42;59.55
71173;DHT22;58875;51.996;4.504;2023-07-09T08:06:54;26.41;58.77
71173;DHT22;58875;51.996;4.504;2023-07-09T08:09:20;26.38;59.67
71173;DHT22;58875;51.996;4.504;2023-07-09T08:11:45;26.34;60.05
71173;DHT22;58875;51.996;4.504;2023-07-09T08:14:11;26.25;60.15
71173;DHT22;58875;51.996;4.504;2023-07-09T08:16:37;26.46;60.18
71173;DHT22;58875;51.996;4.504;2023-07-09T08:19:03;26.52;59.70
71173;DHT22;58875;51.996;4.504;2023-07-09T08:21:29;26.35;59.83
71173;DHT22;58875;51.996;4.504;2023-07-09T08:23:54;26.28;60.04
71173;DHT22;58875;51.996;4.504;2023-07-09T08:26:20;26.34;60.50
71173;DHT22;58875;51.996;4.504;2023-07-09T08:28:46;26.38;60.20
71173;DHT22;58875;51.996;4.504;2023-07-09T08:31:11;26.46;59.26
71173;DHT22;58875;51.996;4.504;2023-07-09T08:33:37;26.66;58.73
71173;DHT22;58875;51.996;4.504;2023-07-09T08:36:03;26.83;58.88
71173;DHT22;58875;51.996;4.504;2023-07-09T08:38:28;27.11;57.86
71173;DHT22;58875;51.996;4.504;2023-07-09T08:41:43;27.38;57.74
71173;DHT22;58875;51.996;4.504;2023-07-09T08:44:36;27.57;58.01
71173;DHT22;58875;51.996;4.504;2023-07-09T08:49:59;27.71;56.48
71173;DHT22;58875;51.996;4.504;2023-07-09T08:55:00;27.74;55.95
71173;DHT22;58875;51.996;4.504;2023-07-09T08:57:31;27.72;55.74
71173;DHT22;58875;51.996;4.504;2023-07-09T09:00:24;27.78;55.98
71173;DHT22;58875;51.996;4.504;2023-07-09T09:02:57;27.82;55.17
71173;DHT22;58875;51.996;4.504;2023-07-09T09:05:24;27.74;55.35
71173;DHT22;58875;51.996;4.504;2023-07-09T09:08:11;27.59;56.10
71173;DHT22;58875;51.996;4.504;2023-07-09T09:10:46;27.74;56.50
71173;DHT22;58875;51.996;4.504;2023-07-09T09:13:16;27.99;56.22
71173;DHT22;58875;51.996;4.504;2023-07-09T09:15:44;28.09;55.97
71173;DHT22;58875;51.996;4.504;2023-07-09T09:20:54;28.15;56.49
71173;DHT22;58875;51.996;4.504;2023-07-09T09:23:22;28.33;56.16
71173;DHT22;58875;51.996;4.504;2023-07-09T09:25:54;28.29;55.23
71173;DHT22;58875;51.996;4.504;2023-07-09T09:28:21;28.26;55.27
71173;DHT22;58875;51.996;4.504;2023-07-09T09:30:50;28.10;56.37
71173;DHT22;58875;51.996;4.504;2023-07-09T09:33:17;28.04;55.43
71173;DHT22;58875;51.996;4.504;2023-07-09T09:35:45;28.16;56.12
71173;DHT22;58875;51.996;4.504;2023-07-09T09:38:11;28.36;55.36
71173;DHT22;58875;51.996;4.504;2023-07-09T09:40:38;28.45;55.15
71173;DHT22;58875;51.996;4.504;2023-07-09T09:43:12;28.61;54.34
71173;DHT22;58875;51.996;4.504;2023-07-09T09:45:40;28.61;53.59
71173;DHT22;58875;51.996;4.504;2023-07-09T09:48:15;28.47;53.31
71173;DHT22;58875;51.996;4.504;2023-07-09T09:50:41;28.33;54.98
71173;DHT22;58875;51.996;4.504;2023-07-09T09:53:08;28.22;55.13
71173;DHT22;58875;51.996;4.504;2023-07-09T09:55:38;28.08;54.57
71173;DHT22;58875;51.996;4.504;2023-07-09T09:58:13;28.20;54.97
71173;DHT22;58875;51.996;4.504;2023-07-09T10:00:40;28.40;54.83
71173;DHT22;58875;51.996;4.504;2023-07-09T10:03:05;28.49;54.32
71173;DHT22;58875;51.996;4.504;2023-07-09T10:05:53;28.61;53.30
71173;DHT22;58875;51.996;4.504;2023-07-09T10:11:31;28.67;52.59
71173;DHT22;58875;51.996;4.504;2023-07-09T10:14:05;28.83;53.46
71173;DHT22;58875;51.996;4.504;2023-07-09T10:16:43;29.06;53.38
71173;DHT22;58875;51.996;4.504;2023-07-09T10:19:22;29.12;52.47
71173;DHT22;58875;51.996;4.504;2023-07-09T10:22:00;29.22;52.13
71173;DHT22;58875;51.996;4.504;2023-07-09T10:24:32;29.35;51.42
71173;DHT22;58875;51.996;4.504;2023-07-09T10:27:29;29.28;52.64
71173;DHT22;58875;51.996;4.504;2023-07-09T10:30:19;29.12;52.91
71173;DHT22;58875;51.996;4.504;2023-07-09T10:35:48;29.51;53.08
71173;DHT22;58875;51.996;4.504;2023-07-09T10:38:55;29.47;51.88
71173;DHT22;58875;51.996;4.504;2023-07-09T10:41:23;29.37;53.34
71173;DHT22;58875;51.996;4.504;2023-07-09T10:46:41;28.91;54.45
71173;DHT22;58875;51.996;4.504;2023-07-09T10:49:14;29.01;54.42
71173;DHT22;58875;51.996;4.504;2023-07-09T10:51:54;29.22;53.09
71173;DHT22;58875;51.996;4.504;2023-07-09T10:54:37;29.34;53.58
71173;DHT22;58875;51.996;4.504;2023-07-09T10:57:41;29.55;52.99
71173;DHT22;58875;51.996;4.504;2023-07-09T11:00:18;29.55;52.22
71173;DHT22;58875;51.996;4.504;2023-07-09T11:02:58;29.41;53.22
71173;DHT22;58875;51.996;4.504;2023-07-09T11:05:25;29.45;53.30
71173;DHT22;58875;51.996;4.504;2023-07-09T11:08:00;29.48;52.23
71173;DHT22;58875;51.996;4.504;2023-07-09T11:10:41;29.12;52.35
71173;DHT22;58875;51.996;4.504;2023-07-09T11:13:16;28.86;52.42
71173;DHT22;58875;51.996;4.504;2023-07-09T11:15:48;28.84;54.11
71173;DHT22;58875;51.996;4.504;2023-07-09T11:18:31;28.80;53.51
71173;DHT22;58875;51.996;4.504;2023-07-09T11:21:14;28.78;54.53
71173;DHT22;58875;51.996;4.504;2023-07-09T11:23:49;28.88;55.17
71173;DHT22;58875;51.996;4.504;2023-07-09T11:26:32;28.91;53.90
71173;DHT22;58875;51.996;4.504;2023-07-09T11:31:40;29.01;53.87
71173;DHT22;58875;51.996;4.504;2023-07-09T11:34:09;29.21;53.45
71173;DHT22;58875;51.996;4.504;2023-07-09T11:36:48;29.70;52.46
71173;DHT22;58875;51.996;4.504;2023-07-09T11:39:41;29.82;52.95
71173;DHT22;58875;51.996;4.504;2023-07-09T11:42:30;29.65;53.15
71173;DHT22;58875;51.996;4.504;2023-07-09T11:45:09;29.48;53.07
71173;DHT22;58875;51.996;4.504;2023-07-09T11:47:37;29.47;52.40
71173;DHT22;58875;51.996;4.504;2023-07-09T11:50:10;29.38;53.58
71173;DHT22;58875;51.996;4.504;2023-07-09T11:55:43;29.29;52.60
71173;DHT22;58875;51.996;4.504;2023-07-09T11:58:17;28.98;54.73
71173;DHT22;58875;51.996;4.504;2023-07-09T12:00:50;28.64;53.11
71173;DHT22;58875;51.996;4.504;2023-07-09T12:05:55;28.40;54.66
71173;DHT22;58875;51.996;4.504;2023-07-09T12:08:27;28.20;54.16
71173;DHT22;58875;51.996;4.504;2023-07-09T12:10:54;28.01;55.24
71173;DHT22;58875;51.996;4.504;2023-07-09T12:13:20;27.95;55.87
71173;DHT22;58875;51.996;4.504;2023-07-09T12:15:46;27.75;54.05
71173;DHT22;58875;51.996;4.504;2023-07-09T12:18:14;27.68;56.39
71173;DHT22;58875;51.996;4.504;2023-07-09T12:20:41;27.72;56.26
71173;DHT22;58875;51.996;4.504;2023-07-09T12:23:29;27.43;57.98
71173;DHT22;58875;51.996;4.504;2023-07-09T12:26:00;26.97;59.31
71173;DHT22;58875;51.996;4.504;2023-07-09T12:28:27;26.45;61.12
71173;DHT22;58875;51.996;4.504;2023-07-09T12:30:54;26.20;62.12
71173;DHT22;58875;51.996;4.504;2023-07-09T12:33:23;25.81;61.72
71173;DHT22;58875;51.996;4.504;2023-07-09T12:36:01;25.43;62.91
71173;DHT22;58875;51.996;4.504;2023-07-09T12:38:32;25.11;64.37
71173;DHT22;58875;51.996;4.504;2023-07-09T12:41:20;24.84;65.45
71173;DHT22;58875;51.996;4.504;2023-07-09T12:43:48;24.55;66.12
71173;DHT22;58875;51.996;4.504;2023-07-09T12:46:15;24.51;66.74
71173;DHT22;58875;51.996;4.504;2023-07-09T12:48:41;24.53;66.55
71173;DHT22;58875;51.996;4.504;2023-07-09T12:51:08;24.47;66.60
71173;DHT22;58875;51.996;4.504;2023-07-09T12:53:36;24.24;66.64
71173;DHT22;58875;51.996;4.504;2023-07-09T12:56:02;24.33;67.85
71173;DHT22;58875;51.996;4.504;2023-07-09T12:58:36;24.51;67.19
71173;DHT22;58875;51.996;4.504;2023-07-09T13:01:11;24.57;65.98
71173;DHT22;58875;51.996;4.504;2023-07-09T13:03:39;24.55;66.26
71173;DHT22;58875;51.996;4.504;2023-07-09T13:06:45;24.48;66.19
71173;DHT22;58875;51.996;4.504;2023-07-09T13:09:21;24.61;66.64
71173;DHT22;58875;51.996;4.504;2023-07-09T13:11:48;24.57;65.83
71173;DHT22;58875;51.996;4.504;2023-07-09T13:14:40;24.67;66.39
71173;DHT22;58875;51.996;4.504;2023-07-09T13:17:08;24.61;64.93
71173;DHT22;58875;51.996;4.504;2023-07-09T13:19:35;24.47;65.77
71173;DHT22;58875;51.996;4.504;2023-07-09T13:22:01;24.48;65.66
71173;DHT22;58875;51.996;4.504;2023-07-09T13:24:31;24.37;66.26
71173;DHT22;58875;51.996;4.504;2023-07-09T13:27:01;24.23;66.64
71173;DHT22;58875;51.996;4.504;2023-07-09T13:29:27;24.18;66.83
71173;DHT22;58875;51.996;4.504;2023-07-09T13:31:54;24.30;66.13
71173;DHT22;58875;51.996;4.504;2023-07-09T13:34:23;24.27;66.32
71173;DHT22;58875;51.996;4.504;2023-07-09T13:36:51;24.28;65.93
71173;DHT22;58875;51.996;4.504;2023-07-09T13:39:20;24.26;66.56
71173;DHT22;58875;51.996;4.504;2023-07-09T13:41:47;24.34;66.43
71173;DHT22;58875;51.996;4.504;2023-07-09T13:44:17;24.17;65.60
71173;DHT22;58875;51.996;4.504;2023-07-09T13:46:43;23.99;65.91
71173;DHT22;58875;51.996;4.504;2023-07-09T13:49:11;23.87;66.50
71173;DHT22;58875;51.996;4.504;2023-07-09T13:51:43;23.76;66.50
71173;DHT22;58875;51.996;4.504;2023-07-09T13:56:42;23.52;66.33
71173;DHT22;58875;51.996;4.504;2023-07-09T13:59:20;23.48;66.78
71173;DHT22;58875;51.996;4.504;2023-07-09T14:01:47;23.48;66.56
71173;DHT22;58875;51.996;4.504;2023-07-09T14:04:15;23.34;66.79
71173;DHT22;58875;51.996;4.504;2023-07-09T14:06:42;23.37;67.09
71173;DHT22;58875;51.996;4.504;2023-07-09T14:09:09;23.31;66.78
71173;DHT22;58875;51.996;4.504;2023-07-09T14:11:49;23.25;67.50
71173;DHT22;58875;51.996;4.504;2023-07-09T14:14:23;23.11;67.91
71173;DHT22;58875;51.996;4.504;2023-07-09T14:16:50;22.94;70.34
71173;DHT22;58875;51.996;4.504;2023-07-09T14:19:19;22.57;72.03
71173;DHT22;58875;51.996;4.504;2023-07-09T14:21:46;21.95;75.65
71173;DHT22;58875;51.996;4.504;2023-07-09T14:26:44;21.51;78.00
71173;DHT22;58875;51.996;4.504;2023-07-09T14:29:12;21.41;80.67
71173;DHT22;58875;51.996;4.504;2023-07-09T14:31:39;21.28;80.40
71173;DHT22;58875;51.996;4.504;2023-07-09T14:34:30;21.04;81.63
71173;DHT22;58875;51.996;4.504;2023-07-09T14:36:59;20.97;81.46
71173;DHT22;58875;51.996;4.504;2023-07-09T14:39:27;20.93;82.66
71173;DHT22;58875;51.996;4.504;2023-07-09T14:41:53;21.07;82.89
71173;DHT22;58875;51.996;4.504;2023-07-09T14:44:31;21.04;83.06
71173;DHT22;58875;51.996;4.504;2023-07-09T14:46:59;21.26;83.09
71173;DHT22;58875;51.996;4.504;2023-07-09T14:49:26;21.35;82.95
71173;DHT22;58875;51.996;4.504;2023-07-09T14:51:53;21.40;83.06
71173;DHT22;58875;51.996;4.504;2023-07-09T14:54:27;21.54;83.85
71173;DHT22;58875;51.996;4.504;2023-07-09T14:56:56;21.77;83.63
71173;DHT22;58875;51.996;4.504;2023-07-09T14:59:22;21.77;83.23
71173;DHT22;58875;51.996;4.504;2023-07-09T15:01:49;21.71;83.64
71173;DHT22;58875;51.996;4.504;2023-07-09T15:06:51;21.73;83.49
71173;DHT22;58875;51.996;4.504;2023-07-09T15:09:19;21.71;83.05
71173;DHT22;58875;51.996;4.504;2023-07-09T15:11:53;21.58;82.45
71173;DHT22;58875;51.996;4.504;2023-07-09T15:14:20;21.54;82.41
71173;DHT22;58875;51.996;4.504;2023-07-09T15:16:47;21.62;83.05
71173;DHT22;58875;51.996;4.504;2023-07-09T15:19:20;21.62;82.04
71173;DHT22;58875;51.996;4.504;2023-07-09T15:21:47;21.64;82.57
71173;DHT22;58875;51.996;4.504;2023-07-09T15:24:28;21.96;83.08
71173;DHT22;58875;51.996;4.504;2023-07-09T15:26:55;21.99;82.00
71173;DHT22;58875;51.996;4.504;2023-07-09T15:29:23;22.23;82.26
71173;DHT22;58875;51.996;4.504;2023-07-09T15:31:48;22.28;81.29
71173;DHT22;58875;51.996;4.504;2023-07-09T15:34:15;22.39;81.53
71173;DHT22;58875;51.996;4.504;2023-07-09T15:36:47;22.50;80.46
71173;DHT22;58875;51.996;4.504;2023-07-09T15:39:14;22.37;79.72
71173;DHT22;58875;51.996;4.504;2023-07-09T15:41:40;22.30;78.70
71173;DHT22;58875;51.996;4.504;2023-07-09T15:44:11;22.05;78.24
71173;DHT22;58875;51.996;4.504;2023-07-09T15:46:40;21.58;75.81
71173;DHT22;58875;51.996;4.504;2023-07-09T15:49:11;21.22;73.96
71173;DHT22;58875;51.996;4.504;2023-07-09T15:51:38;21.28;75.22
71173;DHT22;58875;51.996;4.504;2023-07-09T15:54:17;21.26;75.28
71173;DHT22;58875;51.996;4.504;2023-07-09T15:56:43;21.40;75.98
71173;DHT22;58875;51.996;4.504;2023-07-09T15:59:31;21.48;74.64
71173;DHT22;58875;51.996;4.504;2023-07-09T16:01:58;21.62;75.43
71173;DHT22;58875;51.996;4.504;2023-07-09T16:04:25;21.73;74.61
71173;DHT22;58875;51.996;4.504;2023-07-09T16:06:51;21.68;74.13
71173;DHT22;58875;51.996;4.504;2023-07-09T16:09:18;21.77;74.06
71173;DHT22;58875;51.996;4.504;2023-07-09T16:11:47;21.95;75.07
71173;DHT22;58875;51.996;4.504;2023-07-09T16:14:31;22.06;73.83
71173;DHT22;58875;51.996;4.504;2023-07-09T16:16:59;22.13;74.38
71173;DHT22;58875;51.996;4.504;2023-07-09T16:19:28;22.13;73.98
71173;DHT22;58875;51.996;4.504;2023-07-09T16:22:01;22.16;73.01
71173;DHT22;58875;51.996;4.504;2023-07-09T16:24:32;22.26;73.14